Time;durP1;ratioP1;P1;durP2;ratioP2;P2;SDS_P1;SDS_P2;PMS_P1;PMS_P2;Temp;Humidity;BMP_temperature;BMP_pressure;BME280_temperature;BME280_humidity;BME280_pressure;Samples;Min_cycle;Max_cycle;Signal;HPM_P1;HPM_P2
2020/12/21 00:00:59;;;;;;;18.83;9.90;;;6.70;99.90;;;;;;5060036;28;20024;-82
2020/12/21 00:03:24;;;;;;;17.40;9.40;;;6.60;99.90;;;;;;5064164;28;20036;-82
2020/12/21 00:05:49;;;;;;;15.65;8.98;;;6.60;99.90;;;;;;5063053;28;20490;-82
2020/12/21 00:08:15;;;;;;;15.23;8.70;;;6.70;99.90;;;;;;5064527;28;20037;-82
2020/12/21 00:10:40;;;;;;;17.27;10.15;;;6.70;99.90;;;;;;5061266;28;20492;-82
2020/12/21 00:13:06;;;;;;;16.05;9.25;;;6.60;99.90;;;;;;5051410;28;20028;-82
2020/12/21 00:15:31;;;;;;;15.13;9.07;;;6.60;99.90;;;;;;5054327;28;20043;-82
2020/12/21 00:17:57;;;;;;;17.75;9.35;;;6.60;99.90;;;;;;5047221;28;20071;-82
2020/12/21 00:20:22;;;;;;;17.85;9.10;;;6.60;99.90;;;;;;5061399;28;20082;-81
2020/12/21 00:22:48;;;;;;;17.50;9.85;;;6.60;99.90;;;;;;5053932;28;20225;-82
2020/12/21 00:25:13;;;;;;;15.20;9.18;;;6.50;99.90;;;;;;5043417;28;20124;-82
2020/12/21 00:27:39;;;;;;;14.65;8.82;;;6.50;99.90;;;;;;5059460;28;20024;-82
2020/12/21 00:30:04;;;;;;;16.58;9.57;;;6.60;99.90;;;;;;5039461;28;20021;-81
2020/12/21 00:32:32;;;;;;;15.00;8.65;;;6.60;99.90;;;;;;5041845;28;20025;-82
2020/12/21 00:34:58;;;;;;;15.80;9.23;;;6.50;99.90;;;;;;5048801;28;20378;-82
2020/12/21 00:37:23;;;;;;;15.32;9.13;;;6.50;99.90;;;;;;5046233;28;20040;-82
2020/12/21 00:39:49;;;;;;;19.77;9.52;;;6.50;99.90;;;;;;5053308;28;20021;-81
2020/12/21 00:42:15;;;;;;;16.35;9.85;;;6.50;99.90;;;;;;5047338;28;20036;-82
2020/12/21 00:44:40;;;;;;;17.63;9.52;;;6.50;99.90;;;;;;5045247;28;20025;-81
2020/12/21 00:47:06;;;;;;;17.35;9.00;;;6.50;99.90;;;;;;5062703;28;20391;-81
2020/12/21 00:49:31;;;;;;;17.00;9.52;;;6.60;99.90;;;;;;5040461;28;20021;-82
2020/12/21 00:51:56;;;;;;;15.32;8.98;;;6.50;99.90;;;;;;5039040;28;20280;-82
2020/12/21 00:54:22;;;;;;;16.58;9.55;;;6.50;99.90;;;;;;5055360;28;20037;-81
2020/12/21 00:56:47;;;;;;;16.48;9.10;;;6.50;99.90;;;;;;5057843;28;20243;-82
2020/12/21 00:59:13;;;;;;;18.67;9.38;;;6.50;99.90;;;;;;5059155;28;20024;-81
2020/12/21 01:01:38;;;;;;;15.25;9.00;;;6.50;99.90;;;;;;5062078;28;20025;-81
2020/12/21 01:04:05;;;;;;;15.52;9.15;;;6.50;99.90;;;;;;5045174;28;20482;-81
2020/12/21 01:06:32;;;;;;;17.15;9.52;;;6.40;99.90;;;;;;5042021;28;20170;-82
2020/12/21 01:08:58;;;;;;;15.93;9.38;;;6.40;99.90;;;;;;5048398;28;20028;-82
2020/12/21 01:11:25;;;;;;;14.10;9.13;;;6.40;99.90;;;;;;5062790;28;20028;-82
2020/12/21 01:13:50;;;;;;;16.25;9.02;;;6.50;99.90;;;;;;5048043;28;20044;-81
2020/12/21 01:16:19;;;;;;;14.95;9.70;;;6.40;99.90;;;;;;5064281;28;20086;-82
2020/12/21 01:18:45;;;;;;;16.00;10.00;;;6.40;99.90;;;;;;5061539;28;20040;-81
2020/12/21 01:21:10;;;;;;;18.23;9.48;;;6.40;99.90;;;;;;5063807;28;20021;-82
2020/12/21 01:23:36;;;;;;;18.17;10.05;;;6.40;99.90;;;;;;5061471;28;20042;-81
2020/12/21 01:26:01;;;;;;;14.65;9.02;;;6.40;99.90;;;;;;5062777;28;20025;-81
2020/12/21 01:28:27;;;;;;;16.75;9.25;;;6.40;99.90;;;;;;5046761;28;20086;-81
2020/12/21 01:30:53;;;;;;;16.95;9.15;;;6.50;99.90;;;;;;5037749;28;20020;-82
2020/12/21 01:33:18;;;;;;;18.73;9.88;;;6.40;99.90;;;;;;5052389;28;20487;-81
2020/12/21 01:35:44;;;;;;;17.48;9.48;;;6.40;99.90;;;;;;5057756;28;20496;-81
2020/12/21 01:38:09;;;;;;;16.58;9.45;;;6.40;99.90;;;;;;5059777;28;20028;-81
2020/12/21 01:40:34;;;;;;;17.90;10.20;;;6.40;99.90;;;;;;5048043;28;20108;-81
2020/12/21 01:43:00;;;;;;;16.98;9.68;;;6.50;99.90;;;;;;5044074;28;20028;-81
2020/12/21 01:45:25;;;;;;;17.58;9.50;;;6.50;99.90;;;;;;5042152;28;20422;-81
2020/12/21 01:47:51;;;;;;;17.63;8.77;;;6.40;99.90;;;;;;5044885;28;20029;-82
2020/12/21 01:50:17;;;;;;;18.17;10.07;;;6.50;99.90;;;;;;5055061;28;20031;-81
2020/12/21 01:52:43;;;;;;;14.90;8.95;;;6.50;99.90;;;;;;5046239;28;20048;-81
2020/12/21 01:55:08;;;;;;;19.08;10.25;;;6.50;99.90;;;;;;5063729;28;20028;-81
2020/12/21 01:57:34;;;;;;;15.55;9.30;;;6.50;99.90;;;;;;5060411;28;20059;-81
2020/12/21 02:00:04;;;;;;;18.88;10.40;;;6.60;99.90;;;;;;5063223;28;20414;-81
2020/12/21 02:02:30;;;;;;;16.92;9.55;;;6.60;99.90;;;;;;5061004;28;20033;-81
2020/12/21 02:04:55;;;;;;;18.65;9.55;;;6.60;99.90;;;;;;5061360;28;20044;-81
2020/12/21 02:07:24;;;;;;;16.50;9.05;;;6.60;99.90;;;;;;5058141;28;20127;-81
2020/12/21 02:09:51;;;;;;;16.50;8.77;;;6.60;99.90;;;;;;5052287;28;20045;-81
2020/12/21 02:12:16;;;;;;;17.58;9.63;;;6.60;99.90;;;;;;5039614;28;20028;-81
2020/12/21 02:14:41;;;;;;;16.52;9.18;;;6.50;99.90;;;;;;5047001;28;20115;-81
2020/12/21 02:17:07;;;;;;;18.30;9.50;;;6.60;99.90;;;;;;5055810;28;20425;-81
2020/12/21 02:19:32;;;;;;;16.33;9.27;;;6.60;99.90;;;;;;5060488;28;20037;-81
2020/12/21 02:21:58;;;;;;;16.85;9.70;;;6.60;99.90;;;;;;5063218;28;20029;-81
2020/12/21 02:24:23;;;;;;;19.25;10.68;;;6.60;99.90;;;;;;5060413;28;20047;-81
2020/12/21 02:26:49;;;;;;;18.02;9.60;;;6.60;99.90;;;;;;5060092;28;20021;-81
2020/12/21 02:29:14;;;;;;;18.75;9.63;;;6.60;99.90;;;;;;5055322;28;20494;-81
2020/12/21 02:31:40;;;;;;;17.85;9.63;;;6.60;99.90;;;;;;5067061;28;20395;-81
2020/12/21 02:34:05;;;;;;;17.38;9.98;;;6.60;99.90;;;;;;5064447;28;20025;-81
2020/12/21 02:36:30;;;;;;;17.63;10.18;;;6.60;99.90;;;;;;5061992;28;20035;-81
2020/12/21 02:38:56;;;;;;;16.17;9.93;;;6.50;99.90;;;;;;5048131;28;20029;-81
2020/12/21 02:41:21;;;;;;;19.73;10.88;;;6.60;99.90;;;;;;5048418;28;20063;-81
2020/12/21 02:43:47;;;;;;;17.95;10.70;;;6.60;99.90;;;;;;5045031;28;20561;-81
2020/12/21 02:46:15;;;;;;;21.50;12.85;;;6.60;99.90;;;;;;5061072;28;20049;-81
2020/12/21 02:48:40;;;;;;;21.63;11.88;;;6.50;99.90;;;;;;5044875;28;20025;-82
2020/12/21 02:51:06;;;;;;;23.67;11.75;;;6.70;99.90;;;;;;5064175;28;20104;-81
2020/12/21 02:53:31;;;;;;;23.58;12.35;;;6.70;99.90;;;;;;5059257;28;20287;-82
2020/12/21 02:55:57;;;;;;;21.50;12.40;;;6.70;99.90;;;;;;5055343;28;20025;-81
2020/12/21 02:58:23;;;;;;;23.40;12.50;;;6.80;99.90;;;;;;5044234;28;20522;-81
2020/12/21 03:00:48;;;;;;;21.58;12.15;;;6.70;99.90;;;;;;5061354;28;20024;-81
2020/12/21 03:03:15;;;;;;;18.25;10.60;;;6.80;99.90;;;;;;5059859;28;20028;-82
2020/12/21 03:05:41;;;;;;;19.75;12.32;;;6.80;99.90;;;;;;5065407;28;20031;-81
2020/12/21 03:08:08;;;;;;;19.60;11.50;;;6.80;99.90;;;;;;5055733;28;20467;-81
2020/12/21 03:10:34;;;;;;;20.13;11.73;;;6.80;99.90;;;;;;5062902;28;20242;-81
2020/12/21 03:13:00;;;;;;;19.63;11.40;;;6.80;99.90;;;;;;5066159;28;20386;-81
2020/12/21 03:15:26;;;;;;;19.65;10.88;;;6.70;99.90;;;;;;5055742;28;20074;-80
2020/12/21 03:17:51;;;;;;;20.10;11.00;;;6.80;99.90;;;;;;5064563;28;20060;-81
2020/12/21 03:20:17;;;;;;;18.40;10.73;;;6.80;99.90;;;;;;5050544;28;20072;-81
2020/12/21 03:22:42;;;;;;;24.05;12.27;;;6.80;99.90;;;;;;5051177;28;20028;-82
2020/12/21 03:25:08;;;;;;;20.92;11.88;;;6.80;99.90;;;;;;5063230;28;20094;-81
2020/12/21 03:27:35;;;;;;;22.55;12.25;;;6.80;99.90;;;;;;5049315;28;20028;-81
2020/12/21 03:30:00;;;;;;;20.77;11.43;;;6.80;99.90;;;;;;5062771;28;20013;-81
2020/12/21 03:32:26;;;;;;;19.38;12.02;;;6.80;99.90;;;;;;5059122;28;20521;-81
2020/12/21 03:34:52;;;;;;;19.30;11.75;;;6.80;99.90;;;;;;5059708;28;20031;-81
2020/12/21 03:37:18;;;;;;;21.15;12.57;;;6.90;99.90;;;;;;5058147;28;20042;-81
2020/12/21 03:39:44;;;;;;;22.10;12.57;;;6.90;99.90;;;;;;5047797;28;20147;-80
2020/12/21 03:42:09;;;;;;;26.75;13.77;;;6.90;99.90;;;;;;5040622;28;20104;-81
2020/12/21 03:44:35;;;;;;;21.95;12.75;;;6.80;99.90;;;;;;5055919;28;20029;-81
2020/12/21 03:47:00;;;;;;;21.00;12.43;;;6.90;99.90;;;;;;5055066;28;20047;-81
2020/12/21 03:49:26;;;;;;;20.33;12.55;;;6.90;99.90;;;;;;5054419;28;20052;-81
2020/12/21 03:51:51;;;;;;;26.02;13.77;;;6.90;99.90;;;;;;5065670;28;20029;-81
2020/12/21 03:54:16;;;;;;;27.88;13.82;;;6.90;99.90;;;;;;5064535;28;20033;-81
2020/12/21 03:56:46;;;;;;;23.75;14.15;;;6.90;99.90;;;;;;5060043;28;20025;-81
2020/12/21 03:59:11;;;;;;;27.33;14.70;;;6.80;99.90;;;;;;5053155;28;20215;-81
2020/12/21 04:01:37;;;;;;;24.95;13.88;;;6.80;99.90;;;;;;5059185;28;20030;-80
2020/12/21 04:04:05;;;;;;;25.10;14.73;;;6.80;99.90;;;;;;5054202;28;20052;-81
2020/12/21 04:06:30;;;;;;;27.55;15.40;;;6.80;99.90;;;;;;5063579;28;20025;-81
2020/12/21 04:08:56;;;;;;;25.05;14.35;;;6.90;99.90;;;;;;5048290;28;20437;-81
2020/12/21 04:11:21;;;;;;;26.17;15.05;;;6.80;99.90;;;;;;5063152;28;20024;-81
2020/12/21 04:13:47;;;;;;;24.98;14.88;;;6.90;99.90;;;;;;5046130;28;20585;-81
2020/12/21 04:16:12;;;;;;;23.38;14.25;;;6.80;99.90;;;;;;5059962;28;20387;-81
2020/12/21 04:18:38;;;;;;;25.33;15.20;;;6.90;99.90;;;;;;5050454;28;20037;-81
2020/12/21 04:21:03;;;;;;;27.38;15.75;;;6.90;99.90;;;;;;5060495;28;20032;-81
2020/12/21 04:23:29;;;;;;;26.08;14.95;;;6.90;99.90;;;;;;5061029;28;20025;-81
2020/12/21 04:25:55;;;;;;;23.83;15.07;;;6.80;99.90;;;;;;5063671;28;20302;-81
2020/12/21 04:28:20;;;;;;;25.85;15.23;;;6.80;99.90;;;;;;5062203;28;20028;-81
2020/12/21 04:30:46;;;;;;;27.67;14.20;;;6.80;99.90;;;;;;5045761;28;20506;-81
2020/12/21 04:33:11;;;;;;;25.52;15.50;;;6.80;99.90;;;;;;5062576;28;20021;-81
2020/12/21 04:35:36;;;;;;;25.50;15.18;;;6.90;99.90;;;;;;5062347;28;20036;-81
2020/12/21 04:38:02;;;;;;;29.20;16.58;;;6.90;99.90;;;;;;5064320;28;20105;-80
2020/12/21 04:40:27;;;;;;;28.90;16.48;;;6.80;99.90;;;;;;5046432;28;20059;-80
2020/12/21 04:42:53;;;;;;;25.00;15.50;;;6.80;99.90;;;;;;5061214;28;20037;-81
2020/12/21 04:45:20;;;;;;;29.58;15.73;;;6.80;99.90;;;;;;5063772;28;20040;-80
2020/12/21 04:47:46;;;;;;;27.13;15.30;;;6.80;99.90;;;;;;5042883;28;20029;-80
2020/12/21 04:50:17;;;;;;;23.17;14.73;;;6.80;99.90;;;;;;5053937;28;20028;-80
2020/12/21 04:52:50;;;;;;;27.33;16.05;;;6.80;99.90;;;;;;5059178;28;20070;-80
2020/12/21 04:55:20;;;;;;;25.08;14.80;;;6.70;99.90;;;;;;5058362;28;20032;-80
2020/12/21 04:57:56;;;;;;;29.75;15.55;;;6.70;99.90;;;;;;5059538;28;20035;-80
2020/12/21 05:00:23;;;;;;;30.98;15.15;;;6.70;99.90;;;;;;5052726;28;20032;-80
2020/12/21 05:02:48;;;;;;;26.92;15.50;;;6.70;99.90;;;;;;5064169;28;20066;-80
2020/12/21 05:05:25;;;;;;;26.80;14.80;;;6.70;99.90;;;;;;5062724;28;20425;-81
2020/12/21 05:07:51;;;;;;;27.17;15.38;;;6.60;99.90;;;;;;5062502;28;20029;-80
2020/12/21 05:10:16;;;;;;;28.23;15.55;;;6.60;99.90;;;;;;5062509;28;20027;-81
2020/12/21 05:12:42;;;;;;;27.17;16.17;;;6.60;99.90;;;;;;5042112;28;20036;-82
2020/12/21 05:15:15;;;;;;;28.88;15.35;;;6.60;99.90;;;;;;5056056;28;20027;-81
2020/12/21 05:17:41;;;;;;;24.83;15.00;;;6.50;99.90;;;;;;5062343;28;20028;-80
2020/12/21 05:20:06;;;;;;;25.90;15.98;;;6.60;99.90;;;;;;5057284;28;20047;-81
2020/12/21 05:22:32;;;;;;;31.10;15.57;;;6.70;99.90;;;;;;5045335;28;20116;-81
2020/12/21 05:25:05;;;;;;;26.10;16.30;;;6.60;99.90;;;;;;5059082;28;21372;-81
2020/12/21 05:27:31;;;;;;;30.40;16.23;;;6.60;99.90;;;;;;5062186;28;20025;-80
2020/12/21 05:29:56;;;;;;;28.38;16.17;;;6.60;99.90;;;;;;5062705;28;20533;-80
2020/12/21 05:32:22;;;;;;;25.92;16.17;;;6.60;99.90;;;;;;5055390;28;20025;-81
2020/12/21 05:34:48;;;;;;;29.33;15.35;;;6.60;99.90;;;;;;5042942;28;20036;-81
2020/12/21 05:37:21;;;;;;;25.90;15.43;;;6.50;99.90;;;;;;5041947;28;20021;-90
2020/12/21 05:39:55;;;;;;;29.73;16.05;;;6.50;99.90;;;;;;5050754;28;20047;-79
2020/12/21 05:42:24;;;;;;;27.48;15.55;;;6.50;99.90;;;;;;5044953;28;20057;-79
2020/12/21 05:45:06;;;;;;;28.85;16.10;;;6.60;99.90;;;;;;5042576;28;20040;-80
2020/12/21 05:47:33;;;;;;;28.67;16.48;;;6.60;99.90;;;;;;5041718;28;20017;-79
2020/12/21 05:50:04;;;;;;;29.33;16.65;;;6.60;99.90;;;;;;5057849;28;20039;-83
2020/12/21 05:52:35;;;;;;;;;;;6.70;99.90;;;;;;5058043;28;20111;-82
2020/12/21 05:55:08;;;;;;;25.63;14.55;;;6.70;99.90;;;;;;5057422;28;19920;-82
2020/12/21 05:57:36;;;;;;;25.73;14.57;;;6.70;99.90;;;;;;5056090;28;20510;-81
2020/12/21 06:00:05;;;;;;;26.88;15.48;;;6.70;99.90;;;;;;5062400;28;20062;-83
2020/12/21 06:02:32;;;;;;;25.33;15.25;;;6.70;99.90;;;;;;5053090;28;20048;-82
2020/12/21 06:05:04;;;;;;;27.05;15.05;;;6.70;99.90;;;;;;5053573;28;20029;-83
2020/12/21 06:07:32;;;;;;;24.27;14.32;;;6.70;99.90;;;;;;5050525;28;20048;-82
2020/12/21 06:09:59;;;;;;;27.52;14.65;;;6.70;99.90;;;;;;5045203;28;20099;-83
2020/12/21 06:12:27;;;;;;;24.15;14.13;;;6.70;99.90;;;;;;5046423;28;20029;-83
2020/12/21 06:15:09;;;;;;;27.02;15.38;;;6.60;99.90;;;;;;5063631;28;20371;-82
2020/12/21 06:17:35;;;;;;;;;;;6.50;99.90;;;;;;5055895;28;20090;-82
2020/12/21 06:20:05;;;;;;;22.30;13.88;;;6.60;99.90;;;;;;5062059;28;20358;-82
2020/12/21 06:22:31;;;;;;;27.50;15.38;;;6.60;99.90;;;;;;5065165;28;20110;-82
2020/12/21 06:24:56;;;;;;;29.55;15.27;;;6.50;99.90;;;;;;5065876;28;20060;-82
2020/12/21 06:27:22;;;;;;;27.17;15.02;;;6.60;99.90;;;;;;5066509;28;20103;-82
2020/12/21 06:29:58;;;;;;;26.90;15.43;;;6.70;99.90;;;;;;5064425;28;20494;-83
2020/12/21 06:32:30;;;;;;;25.20;13.70;;;6.60;99.90;;;;;;5047237;28;20498;-82
2020/12/21 06:34:56;;;;;;;26.20;15.15;;;6.60;99.90;;;;;;5045652;28;20479;-82
2020/12/21 06:37:21;;;;;;;21.73;13.27;;;6.60;99.90;;;;;;5061194;28;20031;-82
2020/12/21 06:40:28;;;;;;;26.83;14.15;;;6.60;99.90;;;;;;5044854;28;20040;-82
2020/12/21 06:42:53;;;;;;;22.77;13.02;;;6.60;99.90;;;;;;5030485;28;20033;-82
2020/12/21 06:45:19;;;;;;;25.65;13.57;;;6.60;99.90;;;;;;5042868;28;20102;-82
2020/12/21 06:47:44;;;;;;;21.88;12.48;;;6.60;99.90;;;;;;5044889;28;20481;-82
2020/12/21 06:50:10;;;;;;;23.10;13.77;;;6.60;99.90;;;;;;5060282;28;20056;-83
2020/12/21 06:52:35;;;;;;;26.30;13.50;;;6.60;99.90;;;;;;5044117;28;20470;-82
2020/12/21 06:55:00;;;;;;;24.65;13.90;;;6.60;99.90;;;;;;5066423;28;20036;-82
2020/12/21 06:57:26;;;;;;;23.67;13.63;;;6.60;99.90;;;;;;5065055;28;20024;-82
2020/12/21 06:59:56;;;;;;;26.40;14.60;;;6.50;99.90;;;;;;5065512;28;20031;-82
2020/12/21 07:02:23;;;;;;;26.77;15.03;;;6.50;99.90;;;;;;5054058;28;20483;-82
2020/12/21 07:04:48;;;;;;;30.23;14.00;;;6.50;99.90;;;;;;5055929;28;20293;-82
2020/12/21 07:07:14;;;;;;;25.92;14.20;;;6.50;99.90;;;;;;5065464;28;20105;-81
2020/12/21 07:09:39;;;;;;;23.92;14.15;;;6.40;99.90;;;;;;5064388;28;20245;-82
2020/12/21 07:12:07;;;;;;;29.42;14.27;;;6.40;99.90;;;;;;5064263;28;20055;-81
2020/12/21 07:14:39;;;;;;;22.80;12.88;;;6.40;99.90;;;;;;5063907;28;20746;-82
2020/12/21 07:17:07;;;;;;;24.33;14.52;;;6.30;99.90;;;;;;5047440;28;20503;-81
2020/12/21 07:19:33;;;;;;;30.42;15.40;;;6.30;99.90;;;;;;5043990;28;20051;-81
2020/12/21 07:22:00;;;;;;;26.23;14.13;;;6.30;99.90;;;;;;5052776;28;20028;-81
2020/12/21 07:24:26;;;;;;;29.58;13.68;;;6.30;99.90;;;;;;5061844;28;20036;-81
2020/12/21 07:26:52;;;;;;;25.15;12.75;;;6.30;99.90;;;;;;5061349;28;20033;-82
2020/12/21 07:29:18;;;;;;;24.95;13.23;;;6.30;99.90;;;;;;5061569;28;20489;-81
2020/12/21 07:31:43;;;;;;;21.30;12.80;;;6.40;99.90;;;;;;5053868;28;20029;-82
2020/12/21 07:34:09;;;;;;;22.88;12.98;;;6.40;99.90;;;;;;5052900;28;20025;-82
2020/12/21 07:36:35;;;;;;;24.35;12.52;;;6.40;99.90;;;;;;5065141;28;20739;-82
2020/12/21 07:39:19;;;;;;;22.73;12.43;;;6.30;99.90;;;;;;5064832;28;20547;-82
2020/12/21 07:41:47;;;;;;;32.35;13.00;;;6.20;99.90;;;;;;5059750;28;20111;-82
2020/12/21 07:44:15;;;;;;;24.70;12.35;;;6.30;99.90;;;;;;5064522;28;20040;-82
2020/12/21 07:46:54;;;;;;;23.13;13.23;;;6.30;99.90;;;;;;5056890;28;20020;-82
2020/12/21 07:49:20;;;;;;;22.08;12.77;;;6.30;99.90;;;;;;5061698;28;20052;-82
2020/12/21 07:51:46;;;;;;;25.05;14.07;;;6.30;99.90;;;;;;5044742;28;20438;-82
2020/12/21 07:54:13;;;;;;;23.08;12.75;;;6.30;99.90;;;;;;5054229;28;20032;-82
2020/12/21 07:56:39;;;;;;;25.30;13.10;;;6.30;99.90;;;;;;5057377;28;20063;-81
2020/12/21 07:59:12;;;;;;;30.88;13.30;;;6.30;99.90;;;;;;5052094;28;20036;-82
2020/12/21 08:01:40;;;;;;;22.80;13.82;;;6.30;99.90;;;;;;5063194;28;20053;-82
2020/12/21 08:04:14;;;;;;;27.42;12.80;;;6.40;99.90;;;;;;5060470;28;20338;-82
2020/12/21 08:06:39;;;;;;;23.05;13.07;;;6.40;99.90;;;;;;5058871;28;20047;-82
2020/12/21 08:09:08;;;;;;;26.33;13.35;;;6.40;99.90;;;;;;5042956;28;20021;-83
2020/12/21 08:11:36;;;;;;;24.92;13.43;;;6.50;99.90;;;;;;5046871;28;20494;-82
2020/12/21 08:14:02;;;;;;;26.20;14.23;;;6.60;99.90;;;;;;5061349;28;20039;-82
2020/12/21 08:16:28;;;;;;;26.83;13.68;;;6.60;99.90;;;;;;5057627;28;20093;-81
2020/12/21 08:18:54;;;;;;;23.30;12.93;;;6.60;99.90;;;;;;5047169;28;20407;-81
2020/12/21 08:21:23;;;;;;;29.15;13.25;;;6.60;99.90;;;;;;5046950;28;20028;-80
2020/12/21 08:23:54;;;;;;;20.65;11.75;;;6.60;99.90;;;;;;5063380;28;20389;-81
2020/12/21 08:26:20;;;;;;;21.10;12.50;;;6.60;99.90;;;;;;5063853;28;20078;-81
2020/12/21 08:28:48;;;;;;;21.98;12.13;;;6.70;99.90;;;;;;5055270;28;20450;-81
2020/12/21 08:31:17;;;;;;;21.08;12.05;;;6.70;99.90;;;;;;5043337;28;20458;-81
2020/12/21 08:33:56;;;;;;;18.33;10.80;;;6.70;99.90;;;;;;5051875;28;20025;-80
2020/12/21 08:36:31;;;;;;;22.50;10.75;;;6.60;99.90;;;;;;5044978;28;20106;-86
2020/12/21 08:39:17;;;;;;;21.42;10.77;;;6.60;99.90;;;;;;5054155;28;20043;-82
2020/12/21 08:41:53;;;;;;;21.85;11.48;;;6.70;99.90;;;;;;5060508;28;20021;-80
2020/12/21 08:44:21;;;;;;;18.00;10.73;;;6.70;99.90;;;;;;5062644;28;20489;-77
2020/12/21 08:46:48;;;;;;;19.33;10.55;;;6.70;99.90;;;;;;5063299;28;20382;-84
2020/12/21 08:49:14;;;;;;;18.08;10.38;;;6.60;99.90;;;;;;5060709;28;20489;-84
2020/12/21 08:51:40;;;;;;;19.42;11.77;;;6.60;99.90;;;;;;5046087;28;20024;-84
2020/12/21 08:54:05;;;;;;;22.23;10.52;;;6.50;99.90;;;;;;5063837;28;20021;-84
2020/12/21 08:56:31;;;;;;;22.23;11.63;;;6.50;99.90;;;;;;5060715;28;20040;-84
2020/12/21 08:58:56;;;;;;;19.95;11.27;;;6.50;99.90;;;;;;5061026;28;20037;-84
2020/12/21 09:01:22;;;;;;;19.08;10.63;;;6.50;99.90;;;;;;5058321;28;20082;-83
2020/12/21 09:03:47;;;;;;;20.10;11.55;;;6.50;99.90;;;;;;5042215;28;20021;-84
2020/12/21 09:06:20;;;;;;;22.42;11.20;;;6.60;99.90;;;;;;5054326;28;20025;-83
2020/12/21 09:08:46;;;;;;;21.58;10.85;;;6.40;99.90;;;;;;5047216;28;20029;-84
2020/12/21 09:11:16;;;;;;;20.27;10.77;;;6.60;99.90;;;;;;5047230;28;20029;-84
2020/12/21 09:13:41;;;;;;;21.48;11.73;;;6.60;99.90;;;;;;5039789;28;20086;-76
2020/12/21 09:16:08;;;;;;;21.60;11.98;;;6.60;99.90;;;;;;5043079;28;20483;-78
2020/12/21 09:18:33;;;;;;;18.58;10.68;;;6.70;99.90;;;;;;5048887;28;20534;-84
2020/12/21 09:20:59;;;;;;;18.95;11.45;;;6.70;99.90;;;;;;5062463;28;20024;-81
2020/12/21 09:23:24;;;;;;;19.20;10.18;;;6.70;99.90;;;;;;5063361;28;20134;-87
2020/12/21 09:25:50;;;;;;;21.02;11.55;;;6.80;99.90;;;;;;5061375;28;20481;-85
2020/12/21 09:28:15;;;;;;;23.52;11.48;;;6.70;99.90;;;;;;5052331;28;20027;-89
2020/12/21 09:30:41;;;;;;;19.48;10.27;;;6.80;99.90;;;;;;5049716;28;20035;-88
2020/12/21 09:33:06;;;;;;;18.30;10.20;;;6.80;99.90;;;;;;5068768;28;20020;-87
2020/12/21 09:35:32;;;;;;;21.30;10.48;;;6.90;99.90;;;;;;5057282;28;20083;-87
2020/12/21 09:37:57;;;;;;;19.58;10.90;;;7.00;99.90;;;;;;5064239;28;20060;-86
2020/12/21 09:40:23;;;;;;;22.33;11.25;;;7.10;99.90;;;;;;5057136;28;20161;-85
2020/12/21 09:42:48;;;;;;;20.85;10.55;;;7.10;99.90;;;;;;5047625;28;20028;-85
2020/12/21 09:45:14;;;;;;;21.85;10.77;;;7.10;99.90;;;;;;5051326;28;20028;-78
2020/12/21 09:47:39;;;;;;;20.48;10.07;;;7.20;99.90;;;;;;5053111;28;20044;-76
2020/12/21 09:50:05;;;;;;;19.45;9.70;;;7.30;99.90;;;;;;5056572;28;20035;-78
2020/12/21 09:52:31;;;;;;;19.45;10.38;;;7.40;99.90;;;;;;5049213;28;20029;-79
2020/12/21 09:54:56;;;;;;;19.05;10.30;;;7.40;99.90;;;;;;5050688;28;20028;-78
2020/12/21 09:57:22;;;;;;;16.20;9.35;;;7.50;99.90;;;;;;5051292;28;20481;-76
2020/12/21 09:59:47;;;;;;;16.90;10.15;;;7.60;99.90;;;;;;5050128;28;20042;-81
2020/12/21 10:02:13;;;;;;;18.48;9.18;;;7.70;99.90;;;;;;5043957;28;20039;-84
2020/12/21 10:04:38;;;;;;;18.27;10.00;;;7.80;99.90;;;;;;5045891;28;20380;-82
2020/12/21 10:07:04;;;;;;;17.83;10.02;;;7.80;99.90;;;;;;5050748;28;20287;-83
2020/12/21 10:09:29;;;;;;;15.55;9.25;;;8.00;99.90;;;;;;5049668;28;20031;-80
2020/12/21 10:11:55;;;;;;;20.40;9.82;;;8.10;99.90;;;;;;5049453;28;20072;-81
2020/12/21 10:14:20;;;;;;;18.35;9.50;;;8.00;99.90;;;;;;5051048;28;20028;-81
2020/12/21 10:16:46;;;;;;;17.05;9.52;;;7.90;99.90;;;;;;5049828;28;20083;-80
2020/12/21 10:19:11;;;;;;;16.67;9.52;;;8.00;99.90;;;;;;5052632;28;20124;-92
2020/12/21 10:21:37;;;;;;;18.63;9.80;;;8.00;99.90;;;;;;5045977;28;20060;-80
2020/12/21 10:24:02;;;;;;;21.65;10.25;;;8.00;99.90;;;;;;5046212;28;20037;-83
2020/12/21 10:26:28;;;;;;;19.70;10.13;;;8.00;99.90;;;;;;5046447;28;20086;-77
2020/12/21 10:28:53;;;;;;;24.83;10.30;;;8.00;99.90;;;;;;5046587;28;20044;-85
2020/12/21 10:31:18;;;;;;;18.90;9.30;;;8.00;99.90;;;;;;5048049;28;20033;-85
2020/12/21 10:33:45;;;;;;;18.15;10.07;;;8.10;99.90;;;;;;5045417;28;20021;-80
2020/12/21 10:36:15;;;;;;;23.45;9.50;;;8.20;99.90;;;;;;5048120;28;20028;-79
2020/12/21 10:38:41;;;;;;;20.48;10.30;;;8.30;99.90;;;;;;5048577;28;20059;-78
2020/12/21 10:41:06;;;;;;;17.63;9.13;;;8.20;99.90;;;;;;5051533;28;20085;-76
2020/12/21 10:43:32;;;;;;;16.85;9.35;;;8.30;99.90;;;;;;5050676;28;20431;-77
2020/12/21 10:45:57;;;;;;;18.00;9.95;;;8.40;99.90;;;;;;5050609;28;20766;-78
2020/12/21 10:48:23;;;;;;;15.85;9.30;;;8.60;99.90;;;;;;5051452;28;20614;-85
2020/12/21 10:50:48;;;;;;;16.10;8.75;;;8.70;99.90;;;;;;5050409;28;20112;-78
2020/12/21 10:53:14;;;;;;;16.05;8.93;;;8.80;99.90;;;;;;5050094;28;20570;-77
2020/12/21 10:55:39;;;;;;;15.13;8.57;;;8.80;99.90;;;;;;5050134;28;20021;-78
2020/12/21 10:58:05;;;;;;;17.88;8.88;;;8.80;99.90;;;;;;5049770;28;20025;-85
2020/12/21 11:00:30;;;;;;;15.15;8.52;;;8.90;99.90;;;;;;5048798;28;20058;-80
2020/12/21 11:02:56;;;;;;;12.63;7.45;;;9.00;99.90;;;;;;5050383;28;20029;-80
2020/12/21 11:05:21;;;;;;;14.10;8.10;;;9.10;99.90;;;;;;5051703;28;20035;-79
2020/12/21 11:07:47;;;;;;;12.65;7.93;;;9.30;99.90;;;;;;5047915;28;20025;-80
2020/12/21 11:10:12;;;;;;;15.80;7.80;;;9.50;99.90;;;;;;5049916;28;20032;-80
2020/12/21 11:12:38;;;;;;;13.57;7.93;;;9.60;99.90;;;;;;5048130;28;20029;-81
2020/12/21 11:15:04;;;;;;;14.68;7.30;;;9.80;99.90;;;;;;5051078;28;20083;-78
2020/12/21 11:17:29;;;;;;;13.35;8.10;;;9.90;99.90;;;;;;5044632;28;20383;-79
2020/12/21 11:19:55;;;;;;;15.48;7.65;;;10.00;99.90;;;;;;5044335;28;20033;-80
2020/12/21 11:22:20;;;;;;;13.38;7.55;;;10.10;99.90;;;;;;5048395;28;20568;-78
2020/12/21 11:24:46;;;;;;;17.40;8.27;;;10.20;99.90;;;;;;5044383;28;20040;-79
2020/12/21 11:27:11;;;;;;;14.48;7.85;;;10.40;99.90;;;;;;5044572;28;20134;-78
2020/12/21 11:29:37;;;;;;;14.57;8.23;;;10.20;99.90;;;;;;5048502;28;20032;-80
2020/12/21 11:32:02;;;;;;;17.63;8.13;;;10.30;99.90;;;;;;5051139;28;20075;-80
2020/12/21 11:34:27;;;;;;;15.88;7.65;;;10.10;99.90;;;;;;5049462;28;20020;-80
2020/12/21 11:36:53;;;;;;;13.88;7.63;;;10.00;99.90;;;;;;5051516;28;20112;-79
2020/12/21 11:39:18;;;;;;;13.77;7.60;;;9.90;99.90;;;;;;5049547;28;20391;-79
2020/12/21 11:41:44;;;;;;;17.42;7.90;;;9.90;99.90;;;;;;5048591;28;20091;-80
2020/12/21 11:44:10;;;;;;;14.40;7.90;;;9.80;99.90;;;;;;5049508;28;20037;-77
2020/12/21 11:46:37;;;;;;;15.02;7.38;;;9.80;99.90;;;;;;5044790;28;20031;-80
2020/12/21 11:49:03;;;;;;;16.45;8.02;;;9.80;99.90;;;;;;5044238;28;20021;-81
2020/12/21 11:51:29;;;;;;;11.82;7.22;;;9.80;99.90;;;;;;5049634;28;20037;-81
2020/12/21 11:53:54;;;;;;;12.10;6.72;;;9.90;99.90;;;;;;5049747;28;20027;-80
2020/12/21 11:56:20;;;;;;;13.10;6.90;;;9.80;99.90;;;;;;5051536;28;20029;-78
2020/12/21 11:58:46;;;;;;;12.95;7.15;;;9.80;99.90;;;;;;5049007;28;20025;-78
2020/12/21 12:01:12;;;;;;;12.18;6.30;;;9.80;99.90;;;;;;5048296;28;20102;-77
2020/12/21 12:03:37;;;;;;;11.27;6.10;;;9.90;99.90;;;;;;5053087;28;20057;-77
2020/12/21 12:06:03;;;;;;;9.95;5.82;;;9.90;99.90;;;;;;5052924;28;20032;-76
2020/12/21 12:08:29;;;;;;;14.35;6.75;;;10.00;99.90;;;;;;5054456;28;20029;-78
2020/12/21 12:10:54;;;;;;;12.35;5.70;;;9.80;99.90;;;;;;5051974;28;20032;-78
2020/12/21 12:13:20;;;;;;;13.65;6.30;;;9.50;99.90;;;;;;5053601;28;20067;-78
2020/12/21 12:15:45;;;;;;;14.95;7.20;;;9.30;99.90;;;;;;5053375;28;20119;-76
2020/12/21 12:18:11;;;;;;;16.08;7.55;;;9.20;99.90;;;;;;5052854;28;20124;-78
2020/12/21 12:20:36;;;;;;;12.18;6.35;;;9.50;99.90;;;;;;5052048;28;20044;-77
2020/12/21 12:23:02;;;;;;;13.65;6.25;;;9.70;99.90;;;;;;5053188;28;20036;-77
2020/12/21 12:25:28;;;;;;;13.15;5.80;;;9.80;99.90;;;;;;5050830;28;20064;-77
2020/12/21 12:27:53;;;;;;;12.73;5.40;;;10.00;99.90;;;;;;5051605;28;20025;-80
2020/12/21 12:30:18;;;;;;;10.73;5.55;;;10.00;99.90;;;;;;5052271;28;20698;-83
2020/12/21 12:32:44;;;;;;;9.02;5.65;;;10.00;99.90;;;;;;5052884;28;20039;-80
2020/12/21 12:35:09;;;;;;;11.13;5.93;;;9.80;99.90;;;;;;5053085;28;20079;-79
2020/12/21 12:37:35;;;;;;;11.02;5.60;;;9.60;99.90;;;;;;5052348;28;20035;-78